sensor_id;sensor_type;location;lat;lon;timestamp;pressure;altitude;pressure_sealevel;temperature;humidity
39141;BME280;24875;48.436;10.298;2024-02-16T00:01:46;96174.56;;;8.12;100.00
39141;BME280;24875;48.436;10.298;2024-02-16T00:04:12;96179.81;;;8.12;100.00
39141;BME280;24875;48.436;10.298;2024-02-16T00:06:39;96181.78;;;7.94;100.00
39141;BME280;24875;48.436;10.298;2024-02-16T00:09:07;96182.91;;;8.08;100.00
39141;BME280;24875;48.436;10.298;2024-02-16T00:11:35;96179.78;;;7.81;100.00
39141;BME280;24875;48.436;10.298;2024-02-16T00:14:01;96186.00;;;7.95;100.00
39141;BME280;24875;48.436;10.298;2024-02-16T00:16:28;96189.66;;;8.02;100.00
39141;BME280;24875;48.436;10.298;2024-02-16T00:18:54;96190.78;;;8.00;100.00
39141;BME280;24875;48.436;10.298;2024-02-16T00:21:21;96187.19;;;8.09;100.00
39141;BME280;24875;48.436;10.298;2024-02-16T00:23:47;96190.31;;;8.12;100.00
39141;BME280;24875;48.436;10.298;2024-02-16T00:26:15;96183.94;;;8.15;100.00
39141;BME280;24875;48.436;10.298;2024-02-16T00:28:41;96191.13;;;8.05;100.00
39141;BME280;24875;48.436;10.298;2024-02-16T00:31:08;96180.13;;;8.09;100.00
39141;BME280;24875;48.436;10.298;2024-02-16T00:33:35;96197.69;;;8.09;100.00
39141;BME280;24875;48.436;10.298;2024-02-16T00:36:01;96204.94;;;8.15;100.00
39141;BME280;24875;48.436;10.298;2024-02-16T00:38:28;96197.72;;;8.17;100.00
39141;BME280;24875;48.436;10.298;2024-02-16T00:40:54;96197.69;;;8.09;100.00
39141;BME280;24875;48.436;10.298;2024-02-16T00:43:22;96194.28;;;8.40;100.00
39141;BME280;24875;48.436;10.298;2024-02-16T00:45:49;96184.75;;;8.15;100.00
39141;BME280;24875;48.436;10.298;2024-02-16T00:48:15;96180.69;;;8.29;100.00
39141;BME280;24875;48.436;10.298;2024-02-16T00:50:42;96182.97;;;8.32;100.00
39141;BME280;24875;48.436;10.298;2024-02-16T00:53:08;96183.78;;;8.32;100.00
39141;BME280;24875;48.436;10.298;2024-02-16T00:55:34;96182.28;;;8.30;100.00
39141;BME280;24875;48.436;10.298;2024-02-16T00:58:02;96188.38;;;8.22;100.00
39141;BME280;24875;48.436;10.298;2024-02-16T01:00:31;96186.06;;;8.51;100.00
39141;BME280;24875;48.436;10.298;2024-02-16T01:02:57;96177.72;;;8.24;100.00
39141;BME280;24875;48.436;10.298;2024-02-16T01:05:23;96186.25;;;8.18;100.00
39141;BME280;24875;48.436;10.298;2024-02-16T01:07:50;96183.63;;;8.18;100.00
39141;BME280;24875;48.436;10.298;2024-02-16T01:10:16;96182.63;;;8.19;100.00
39141;BME280;24875;48.436;10.298;2024-02-16T01:12:43;96180.69;;;8.29;100.00
39141;BME280;24875;48.436;10.298;2024-02-16T01:15:09;96170.81;;;8.31;100.00
39141;BME280;24875;48.436;10.298;2024-02-16T01:17:37;96177.06;;;8.38;100.00
39141;BME280;24875;48.436;10.298;2024-02-16T01:20:06;96176.72;;;8.41;100.00
39141;BME280;24875;48.436;10.298;2024-02-16T01:22:35;96175.72;;;8.26;100.00
39141;BME280;24875;48.436;10.298;2024-02-16T01:25:02;96175.09;;;8.32;100.00
39141;BME280;24875;48.436;10.298;2024-02-16T01:27:28;96173.25;;;8.32;100.00
39141;BME280;24875;48.436;10.298;2024-02-16T01:29:55;96175.09;;;8.32;100.00
39141;BME280;24875;48.436;10.298;2024-02-16T01:32:21;96176.25;;;8.21;100.00
39141;BME280;24875;48.436;10.298;2024-02-16T01:34:49;96166.22;;;8.41;100.00
39141;BME280;24875;48.436;10.298;2024-02-16T01:37:16;96162.25;;;8.13;100.00
39141;BME280;24875;48.436;10.298;2024-02-16T01:39:42;96170.81;;;8.23;100.00
39141;BME280;24875;48.436;10.298;2024-02-16T01:42:09;96164.41;;;8.33;100.00
39141;BME280;24875;48.436;10.298;2024-02-16T01:44:35;96168.53;;;8.36;100.00
39141;BME280;24875;48.436;10.298;2024-02-16T01:47:03;96163.75;;;8.39;100.00
39141;BME280;24875;48.436;10.298;2024-02-16T01:49:29;96172.78;;;8.37;100.00
39141;BME280;24875;48.436;10.298;2024-02-16T01:51:57;96156.69;;;8.40;100.00
39141;BME280;24875;48.436;10.298;2024-02-16T01:54:24;96168.19;;;8.31;100.00
39141;BME280;24875;48.436;10.298;2024-02-16T01:56:50;96168.84;;;8.25;100.00
39141;BME280;24875;48.436;10.298;2024-02-16T01:59:17;96164.75;;;8.30;100.00
39141;BME280;24875;48.436;10.298;2024-02-16T02:01:44;96165.88;;;8.36;100.00
39141;BME280;24875;48.436;10.298;2024-02-16T02:04:10;96177.69;;;8.40;100.00
39141;BME280;24875;48.436;10.298;2024-02-16T02:06:37;96171.47;;;8.33;100.00
39141;BME280;24875;48.436;10.298;2024-02-16T02:09:05;96172.44;;;8.48;100.00
39141;BME280;24875;48.436;10.298;2024-02-16T02:11:32;96170.97;;;8.29;100.00
39141;BME280;24875;48.436;10.298;2024-02-16T02:13:59;96166.38;;;8.23;100.00
39141;BME280;24875;48.436;10.298;2024-02-16T02:16:25;96168.03;;;8.24;100.00
39141;BME280;24875;48.436;10.298;2024-02-16T02:18:53;96176.22;;;8.29;100.00
39141;BME280;24875;48.436;10.298;2024-02-16T02:21:19;96172.13;;;8.27;100.00
39141;BME280;24875;48.436;10.298;2024-02-16T02:23:47;96169.34;;;8.44;100.00
39141;BME280;24875;48.436;10.298;2024-02-16T02:26:14;96164.25;;;8.43;100.00
39141;BME280;24875;48.436;10.298;2024-02-16T02:28:41;96152.47;;;8.15;100.00
39141;BME280;24875;48.436;10.298;2024-02-16T02:31:08;96154.72;;;8.26;100.00
39141;BME280;24875;48.436;10.298;2024-02-16T02:33:35;96156.38;;;8.27;100.00
39141;BME280;24875;48.436;10.298;2024-02-16T02:36:01;96145.22;;;8.33;100.00
39141;BME280;24875;48.436;10.298;2024-02-16T02:38:30;96147.84;;;8.33;100.00
39141;BME280;24875;48.436;10.298;2024-02-16T02:40:58;96147.00;;;8.48;100.00
39141;BME280;24875;48.436;10.298;2024-02-16T02:43:24;96147.34;;;8.37;100.00
39141;BME280;24875;48.436;10.298;2024-02-16T02:45:50;96145.53;;;8.46;100.00
39141;BME280;24875;48.436;10.298;2024-02-16T02:48:17;96134.69;;;8.48;100.00
39141;BME280;24875;48.436;10.298;2024-02-16T02:50:43;96145.03;;;8.50;100.00
39141;BME280;24875;48.436;10.298;2024-02-16T02:53:10;96139.28;;;8.54;100.00
39141;BME280;24875;48.436;10.298;2024-02-16T02:55:36;96139.25;;;8.62;100.00
39141;BME280;24875;48.436;10.298;2024-02-16T02:58:04;96137.25;;;8.80;100.00
39141;BME280;24875;48.436;10.298;2024-02-16T03:00:30;96141.22;;;8.68;100.00
39141;BME280;24875;48.436;10.298;2024-02-16T03:02:57;96142.06;;;8.61;100.00
39141;BME280;24875;48.436;10.298;2024-02-16T03:05:23;96135.69;;;8.55;100.00
39141;BME280;24875;48.436;10.298;2024-02-16T03:07:50;96142.91;;;8.53;100.00
39141;BME280;24875;48.436;10.298;2024-02-16T03:10:16;96151.75;;;8.52;100.00
39141;BME280;24875;48.436;10.298;2024-02-16T03:12:47;96151.13;;;8.43;100.00
39141;BME280;24875;48.436;10.298;2024-02-16T03:15:16;96145.53;;;8.46;100.00
39141;BME280;24875;48.436;10.298;2024-02-16T03:17:42;96153.25;;;8.23;100.00
39141;BME280;24875;48.436;10.298;2024-02-16T03:20:09;96146.69;;;8.27;100.00
39141;BME280;24875;48.436;10.298;2024-02-16T03:22:36;96141.56;;;7.94;100.00
39141;BME280;24875;48.436;10.298;2024-02-16T03:25:03;96140.16;;;8.15;100.00
39141;BME280;24875;48.436;10.298;2024-02-16T03:27:30;96146.84;;;8.02;100.00
39141;BME280;24875;48.436;10.298;2024-02-16T03:29:56;96149.13;;;8.05;100.00
39141;BME280;24875;48.436;10.298;2024-02-16T03:32:24;96147.81;;;8.09;100.00
39141;BME280;24875;48.436;10.298;2024-02-16T03:34:51;96158.97;;;7.95;100.00
39141;BME280;24875;48.436;10.298;2024-02-16T03:37:17;96165.19;;;7.94;100.00
39141;BME280;24875;48.436;10.298;2024-02-16T03:39:44;96159.31;;;7.84;100.00
39141;BME280;24875;48.436;10.298;2024-02-16T03:42:11;96167.00;;;7.86;100.00
39141;BME280;24875;48.436;10.298;2024-02-16T03:44:37;96159.78;;;7.87;100.00
39141;BME280;24875;48.436;10.298;2024-02-16T03:47:04;96166.50;;;7.82;100.00
39141;BME280;24875;48.436;10.298;2024-02-16T03:49:31;96166.19;;;8.01;100.00
39141;BME280;24875;48.436;10.298;2024-02-16T03:51:58;96172.72;;;7.89;100.00
39141;BME280;24875;48.436;10.298;2024-02-16T03:54:24;96171.72;;;7.66;100.00
39141;BME280;24875;48.436;10.298;2024-02-16T03:56:53;96174.53;;;7.88;100.00
39141;BME280;24875;48.436;10.298;2024-02-16T03:59:19;96178.75;;;7.74;100.00
39141;BME280;24875;48.436;10.298;2024-02-16T04:01:46;96186.00;;;7.80;100.00
39141;BME280;24875;48.436;10.298;2024-02-16T04:04:12;96190.63;;;7.86;100.00
39141;BME280;24875;48.436;10.298;2024-02-16T04:06:40;96185.53;;;8.00;100.00
39141;BME280;24875;48.436;10.298;2024-02-16T04:09:07;96192.88;;;7.73;100.00
39141;BME280;24875;48.436;10.298;2024-02-16T04:11:33;96188.97;;;7.77;100.00
39141;BME280;24875;48.436;10.298;2024-02-16T04:14:00;96186.94;;;7.63;100.00
39141;BME280;24875;48.436;10.298;2024-02-16T04:16:27;96190.63;;;7.36;100.00
39141;BME280;24875;48.436;10.298;2024-02-16T04:18:54;96188.25;;;7.59;100.00
39141;BME280;24875;48.436;10.298;2024-02-16T04:21:20;96194.66;;;7.56;100.00
39141;BME280;24875;48.436;10.298;2024-02-16T04:23:48;96184.69;;;7.68;100.00
39141;BME280;24875;48.436;10.298;2024-02-16T04:26:15;96181.84;;;7.53;100.00
39141;BME280;24875;48.436;10.298;2024-02-16T04:28:41;96196.25;;;7.57;100.00
39141;BME280;24875;48.436;10.298;2024-02-16T04:31:07;96177.09;;;7.65;100.00
39141;BME280;24875;48.436;10.298;2024-02-16T04:33:34;96185.13;;;7.55;100.00
39141;BME280;24875;48.436;10.298;2024-02-16T04:36:00;96180.50;;;7.49;100.00
39141;BME280;24875;48.436;10.298;2024-02-16T04:38:27;96181.50;;;7.48;100.00
39141;BME280;24875;48.436;10.298;2024-02-16T04:40:55;96187.41;;;7.58;100.00
39141;BME280;24875;48.436;10.298;2024-02-16T04:43:21;96194.28;;;7.51;100.00
39141;BME280;24875;48.436;10.298;2024-02-16T04:45:47;96182.50;;;7.47;100.00
39141;BME280;24875;48.436;10.298;2024-02-16T04:48:14;96179.53;;;7.42;100.00
39141;BME280;24875;48.436;10.298;2024-02-16T04:50:41;96182.44;;;7.39;100.00
39141;BME280;24875;48.436;10.298;2024-02-16T04:53:07;96187.81;;;7.22;100.00
39141;BME280;24875;48.436;10.298;2024-02-16T04:55:34;96189.50;;;7.39;100.00
39141;BME280;24875;48.436;10.298;2024-02-16T04:58:02;96201.38;;;7.59;100.00
39141;BME280;24875;48.436;10.298;2024-02-16T05:00:30;96194.59;;;7.48;100.00
39141;BME280;24875;48.436;10.298;2024-02-16T05:02:57;96197.19;;;7.40;100.00
39141;BME280;24875;48.436;10.298;2024-02-16T05:05:23;96191.16;;;7.40;100.00
39141;BME280;24875;48.436;10.298;2024-02-16T05:07:50;96191.91;;;7.25;100.00
39141;BME280;24875;48.436;10.298;2024-02-16T05:10:17;96191.72;;;7.18;100.00
39141;BME280;24875;48.436;10.298;2024-02-16T05:12:44;96191.53;;;7.12;100.00
39141;BME280;24875;48.436;10.298;2024-02-16T05:15:12;96193.84;;;7.23;100.00
39141;BME280;24875;48.436;10.298;2024-02-16T05:17:39;96197.97;;;7.25;100.00
39141;BME280;24875;48.436;10.298;2024-02-16T05:20:09;96192.78;;;7.41;100.00
39141;BME280;24875;48.436;10.298;2024-02-16T05:22:41;96202.91;;;7.28;100.00
39141;BME280;24875;48.436;10.298;2024-02-16T05:25:08;96205.38;;;7.37;100.00
39141;BME280;24875;48.436;10.298;2024-02-16T05:27:34;96199.09;;;7.23;100.00
39141;BME280;24875;48.436;10.298;2024-02-16T05:30:01;96200.13;;;7.29;100.00
39141;BME280;24875;48.436;10.298;2024-02-16T05:32:30;96203.31;;;7.57;100.00
39141;BME280;24875;48.436;10.298;2024-02-16T05:34:57;96194.22;;;7.35;100.00
39141;BME280;24875;48.436;10.298;2024-02-16T05:37:25;96199.84;;;7.48;100.00
39141;BME280;24875;48.436;10.298;2024-02-16T05:39:51;96200.88;;;7.14;100.00
39141;BME280;24875;48.436;10.298;2024-02-16T05:42:22;96214.28;;;7.11;100.00
39141;BME280;24875;48.436;10.298;2024-02-16T05:44:49;96213.81;;;7.16;100.00
39141;BME280;24875;48.436;10.298;2024-02-16T05:47:16;96216.81;;;7.28;100.00
39141;BME280;24875;48.436;10.298;2024-02-16T05:49:45;96218.34;;;7.47;100.00
39141;BME280;24875;48.436;10.298;2024-02-16T05:52:11;96214.00;;;7.22;100.00
39141;BME280;24875;48.436;10.298;2024-02-16T05:54:43;96214.81;;;7.23;100.00
39141;BME280;24875;48.436;10.298;2024-02-16T05:57:10;96209.50;;;7.07;100.00
39141;BME280;24875;48.436;10.298;2024-02-16T05:59:38;96206.03;;;6.98;100.00
39141;BME280;24875;48.436;10.298;2024-02-16T06:02:04;96215.34;;;6.93;100.00
39141;BME280;24875;48.436;10.298;2024-02-16T06:04:32;96218.34;;;7.06;100.00
39141;BME280;24875;48.436;10.298;2024-02-16T06:07:00;96212.22;;;7.30;100.00
39141;BME280;24875;48.436;10.298;2024-02-16T06:09:26;96213.84;;;7.24;100.00
39141;BME280;24875;48.436;10.298;2024-02-16T06:12:00;96213.94;;;7.47;100.00
39141;BME280;24875;48.436;10.298;2024-02-16T06:14:28;96216.31;;;7.33;100.00
39141;BME280;24875;48.436;10.298;2024-02-16T06:16:55;96217.69;;;7.37;100.00
39141;BME280;24875;48.436;10.298;2024-02-16T06:19:31;96222.59;;;7.40;100.00
39141;BME280;24875;48.436;10.298;2024-02-16T06:21:57;96221.25;;;7.28;100.00
39141;BME280;24875;48.436;10.298;2024-02-16T06:24:25;96224.28;;;7.57;100.00
39141;BME280;24875;48.436;10.298;2024-02-16T06:26:52;96228.16;;;7.37;100.00
39141;BME280;24875;48.436;10.298;2024-02-16T06:29:19;96230.66;;;7.46;100.00
39141;BME280;24875;48.436;10.298;2024-02-16T06:31:46;96229.97;;;7.44;100.00
39141;BME280;24875;48.436;10.298;2024-02-16T06:34:13;96244.22;;;7.42;100.00
39141;BME280;24875;48.436;10.298;2024-02-16T06:36:40;96239.50;;;7.45;100.00
39141;BME280;24875;48.436;10.298;2024-02-16T06:39:06;96242.09;;;7.45;100.00
39141;BME280;24875;48.436;10.298;2024-02-16T06:41:36;96248.25;;;7.62;100.00
39141;BME280;24875;48.436;10.298;2024-02-16T06:44:04;96251.03;;;7.60;100.00
39141;BME280;24875;48.436;10.298;2024-02-16T06:46:30;96251.63;;;7.46;100.00
39141;BME280;24875;48.436;10.298;2024-02-16T06:48:57;96251.66;;;7.54;100.00
39141;BME280;24875;48.436;10.298;2024-02-16T06:51:23;96246.75;;;7.59;100.00
39141;BME280;24875;48.436;10.298;2024-02-16T06:53:51;96251.97;;;7.51;100.00
39141;BME280;24875;48.436;10.298;2024-02-16T06:56:18;96257.31;;;7.75;100.00
39141;BME280;24875;48.436;10.298;2024-02-16T06:58:46;96260.31;;;8.04;100.00
39141;BME280;24875;48.436;10.298;2024-02-16T07:01:13;96265.84;;;7.85;100.00
39141;BME280;24875;48.436;10.298;2024-02-16T07:03:40;96264.25;;;7.92;100.00
39141;BME280;24875;48.436;10.298;2024-02-16T07:06:07;96267.22;;;8.05;100.00
39141;BME280;24875;48.436;10.298;2024-02-16T07:08:35;96279.97;;;7.92;100.00
39141;BME280;24875;48.436;10.298;2024-02-16T07:11:02;96278.34;;;8.07;100.00
39141;BME280;24875;48.436;10.298;2024-02-16T07:13:30;96280.97;;;7.99;100.00
39141;BME280;24875;48.436;10.298;2024-02-16T07:15:57;96284.88;;;7.87;100.00
39141;BME280;24875;48.436;10.298;2024-02-16T07:18:24;96290.28;;;7.86;100.00
39141;BME280;24875;48.436;10.298;2024-02-16T07:20:50;96291.81;;;8.12;100.00
39141;BME280;24875;48.436;10.298;2024-02-16T07:23:17;96296.31;;;8.19;100.00
39141;BME280;24875;48.436;10.298;2024-02-16T07:25:44;96289.53;;;8.01;100.00
39141;BME280;24875;48.436;10.298;2024-02-16T07:28:11;96288.13;;;8.38;100.00
39141;BME280;24875;48.436;10.298;2024-02-16T07:30:37;96287.16;;;8.55;100.00
39141;BME280;24875;48.436;10.298;2024-02-16T07:33:05;96287.66;;;8.90;100.00
39141;BME280;24875;48.436;10.298;2024-02-16T07:35:32;96288.00;;;8.87;100.00
39141;BME280;24875;48.436;10.298;2024-02-16T07:38:00;96297.19;;;8.91;100.00
39141;BME280;24875;48.436;10.298;2024-02-16T07:40:27;96296.03;;;9.02;100.00
39141;BME280;24875;48.436;10.298;2024-02-16T07:42:53;96287.16;;;9.03;100.00
39141;BME280;24875;48.436;10.298;2024-02-16T07:45:20;96291.41;;;9.19;100.00
39141;BME280;24875;48.436;10.298;2024-02-16T07:47:47;96298.19;;;8.90;100.00
39141;BME280;24875;48.436;10.298;2024-02-16T07:50:18;96283.66;;;9.26;100.00
39141;BME280;24875;48.436;10.298;2024-02-16T07:52:45;96293.06;;;9.20;100.00
39141;BME280;24875;48.436;10.298;2024-02-16T07:55:12;96286.97;;;9.12;100.00
39141;BME280;24875;48.436;10.298;2024-02-16T07:57:38;96284.63;;;9.41;100.00
39141;BME280;24875;48.436;10.298;2024-02-16T08:00:06;96291.44;;;9.66;100.00
39141;BME280;24875;48.436;10.298;2024-02-16T08:02:36;96278.94;;;9.68;100.00
39141;BME280;24875;48.436;10.298;2024-02-16T08:05:04;96288.66;;;9.59;100.00
39141;BME280;24875;48.436;10.298;2024-02-16T08:07:34;96285.81;;;9.68;100.00
39141;BME280;24875;48.436;10.298;2024-02-16T08:10:00;96292.78;;;9.54;100.00
39141;BME280;24875;48.436;10.298;2024-02-16T08:12:28;96285.31;;;9.73;100.00
39141;BME280;24875;48.436;10.298;2024-02-16T08:14:56;96292.03;;;9.37;100.00
39141;BME280;24875;48.436;10.298;2024-02-16T08:17:23;96284.53;;;9.65;100.00
39141;BME280;24875;48.436;10.298;2024-02-16T08:19:51;96285.38;;;10.03;100.00
39141;BME280;24875;48.436;10.298;2024-02-16T08:22:18;96283.19;;;9.76;100.00
39141;BME280;24875;48.436;10.298;2024-02-16T08:24:46;96284.09;;;9.99;100.00
39141;BME280;24875;48.436;10.298;2024-02-16T08:27:14;96284.09;;;9.99;100.00
39141;BME280;24875;48.436;10.298;2024-02-16T08:29:41;96287.19;;;9.95;100.00
39141;BME280;24875;48.436;10.298;2024-02-16T08:32:09;96284.66;;;10.09;100.00
39141;BME280;24875;48.436;10.298;2024-02-16T08:34:36;96284.72;;;10.32;100.00
39141;BME280;24875;48.436;10.298;2024-02-16T08:37:04;96282.22;;;10.38;100.00
39141;BME280;24875;48.436;10.298;2024-02-16T08:39:31;96286.59;;;10.45;100.00
39141;BME280;24875;48.436;10.298;2024-02-16T08:42:00;96285.50;;;10.85;100.00
39141;BME280;24875;48.436;10.298;2024-02-16T08:44:27;96290.66;;;10.56;100.00
39141;BME280;24875;48.436;10.298;2024-02-16T08:46:53;96291.09;;;10.82;100.00
39141;BME280;24875;48.436;10.298;2024-02-16T08:49:20;96293.31;;;10.93;100.00
39141;BME280;24875;48.436;10.298;2024-02-16T08:51:47;96290.41;;;10.88;100.00
39141;BME280;24875;48.436;10.298;2024-02-16T08:54:14;96292.78;;;10.97;100.00
39141;BME280;24875;48.436;10.298;2024-02-16T08:56:43;96290.41;;;11.24;100.00
39141;BME280;24875;48.436;10.298;2024-02-16T08:59:11;96288.19;;;11.50;100.00
39141;BME280;24875;48.436;10.298;2024-02-16T09:01:38;96289.09;;;11.57;100.00
39141;BME280;24875;48.436;10.298;2024-02-16T09:04:05;96287.53;;;11.77;100.00
39141;BME280;24875;48.436;10.298;2024-02-16T09:06:32;96293.28;;;11.80;100.00
39141;BME280;24875;48.436;10.298;2024-02-16T09:09:00;96291.00;;;11.92;100.00
39141;BME280;24875;48.436;10.298;2024-02-16T09:11:26;96285.22;;;12.17;100.00
39141;BME280;24875;48.436;10.298;2024-02-16T09:13:53;96289.66;;;12.31;100.00
39141;BME280;24875;48.436;10.298;2024-02-16T09:16:21;96299.44;;;12.72;100.00
39141;BME280;24875;48.436;10.298;2024-02-16T09:18:47;96303.22;;;12.63;100.00
39141;BME280;24875;48.436;10.298;2024-02-16T09:21:14;96289.53;;;12.95;100.00
39141;BME280;24875;48.436;10.298;2024-02-16T09:23:41;96291.84;;;13.04;100.00
39141;BME280;24875;48.436;10.298;2024-02-16T09:26:07;96290.84;;;13.33;100.00
39141;BME280;24875;48.436;10.298;2024-02-16T09:28:38;96281.66;;;13.90;100.00
39141;BME280;24875;48.436;10.298;2024-02-16T09:31:06;96295.03;;;13.75;100.00
39141;BME280;24875;48.436;10.298;2024-02-16T09:33:34;96295.88;;;13.82;100.00
39141;BME280;24875;48.436;10.298;2024-02-16T09:36:01;96296.91;;;13.81;100.00
39141;BME280;24875;48.436;10.298;2024-02-16T09:38:27;96302.13;;;13.68;100.00
39141;BME280;24875;48.436;10.298;2024-02-16T09:40:54;96296.44;;;13.71;100.00
39141;BME280;24875;48.436;10.298;2024-02-16T09:43:24;96293.72;;;13.98;100.00
39141;BME280;24875;48.436;10.298;2024-02-16T09:45:53;96300.19;;;14.17;100.00
39141;BME280;24875;48.436;10.298;2024-02-16T09:48:20;96300.03;;;14.38;100.00
39141;BME280;24875;48.436;10.298;2024-02-16T09:50:49;96299.56;;;14.21;100.00
39141;BME280;24875;48.436;10.298;2024-02-16T09:53:17;96301.34;;;14.08;100.00
39141;BME280;24875;48.436;10.298;2024-02-16T09:55:43;96299.75;;;14.20;100.00
39141;BME280;24875;48.436;10.298;2024-02-16T09:58:11;96308.63;;;14.40;100.00
39141;BME280;24875;48.436;10.298;2024-02-16T10:00:42;96306.09;;;14.25;100.00
39141;BME280;24875;48.436;10.298;2024-02-16T10:03:21;96307.28;;;14.76;100.00
39141;BME280;24875;48.436;10.298;2024-02-16T10:05:50;96310.75;;;14.76;100.00
39141;BME280;24875;48.436;10.298;2024-02-16T10:08:17;96308.50;;;14.73;100.00
39141;BME280;24875;48.436;10.298;2024-02-16T10:10:44;96318.56;;;14.97;100.00
39141;BME280;24875;48.436;10.298;2024-02-16T10:13:10;96312.03;;;14.87;100.00
39141;BME280;24875;48.436;10.298;2024-02-16T10:15:37;96316.47;;;14.67;100.00
39141;BME280;24875;48.436;10.298;2024-02-16T10:18:05;96315.06;;;14.90;100.00
39141;BME280;24875;48.436;10.298;2024-02-16T10:20:33;96318.50;;;14.65;100.00
39141;BME280;24875;48.436;10.298;2024-02-16T10:23:08;96313.28;;;15.04;100.00
39141;BME280;24875;48.436;10.298;2024-02-16T10:25:36;96314.91;;;14.98;100.00
39141;BME280;24875;48.436;10.298;2024-02-16T10:28:07;96312.25;;;15.05;100.00
39141;BME280;24875;48.436;10.298;2024-02-16T10:30:36;96313.47;;;14.89;100.00
39141;BME280;24875;48.436;10.298;2024-02-16T10:33:04;96315.28;;;14.95;100.00
39141;BME280;24875;48.436;10.298;2024-02-16T10:35:32;96318.19;;;15.20;100.00
39141;BME280;24875;48.436;10.298;2024-02-16T10:38:01;96321.03;;;15.18;100.00
39141;BME280;24875;48.436;10.298;2024-02-16T10:40:32;96318.59;;;15.10;98.84
39141;BME280;24875;48.436;10.298;2024-02-16T10:43:02;96315.31;;;15.08;98.38
39141;BME280;24875;48.436;10.298;2024-02-16T10:45:33;96313.69;;;15.01;100.00
39141;BME280;24875;48.436;10.298;2024-02-16T10:48:00;96317.34;;;14.93;100.00
39141;BME280;24875;48.436;10.298;2024-02-16T10:50:26;96323.44;;;14.87;100.00
39141;BME280;24875;48.436;10.298;2024-02-16T10:52:55;96317.34;;;15.06;100.00
39141;BME280;24875;48.436;10.298;2024-02-16T10:55:22;96314.72;;;15.06;99.30
39141;BME280;24875;48.436;10.298;2024-02-16T10:57:51;96316.81;;;15.24;99.62
39141;BME280;24875;48.436;10.298;2024-02-16T11:00:20;96319.81;;;15.08;98.53
39141;BME280;24875;48.436;10.298;2024-02-16T11:02:52;96319.84;;;15.21;97.42
39141;BME280;24875;48.436;10.298;2024-02-16T11:05:31;96314.06;;;15.04;97.48
39141;BME280;24875;48.436;10.298;2024-02-16T11:08:00;96319.59;;;15.09;99.11
39141;BME280;24875;48.436;10.298;2024-02-16T11:10:26;96317.34;;;15.00;98.40
39141;BME280;24875;48.436;10.298;2024-02-16T11:12:55;96317.63;;;15.24;98.06
39141;BME280;24875;48.436;10.298;2024-02-16T11:15:30;96317.41;;;15.58;96.97
39141;BME280;24875;48.436;10.298;2024-02-16T11:17:58;96320.28;;;15.37;97.37
39141;BME280;24875;48.436;10.298;2024-02-16T11:20:26;96323.72;;;15.31;98.97
39141;BME280;24875;48.436;10.298;2024-02-16T11:22:53;96318.66;;;15.62;97.26
39141;BME280;24875;48.436;10.298;2024-02-16T11:25:30;96313.41;;;16.18;95.71
39141;BME280;24875;48.436;10.298;2024-02-16T11:27:58;96313.69;;;15.84;97.06
39141;BME280;24875;48.436;10.298;2024-02-16T11:30:25;96316.31;;;15.91;95.59
39141;BME280;24875;48.436;10.298;2024-02-16T11:32:52;96317.97;;;15.85;93.92
39141;BME280;24875;48.436;10.298;2024-02-16T11:35:19;96315.50;;;15.90;94.67
39141;BME280;24875;48.436;10.298;2024-02-16T11:37:45;96315.69;;;16.08;92.95
39141;BME280;24875;48.436;10.298;2024-02-16T11:40:12;96307.25;;;16.24;92.18
39141;BME280;24875;48.436;10.298;2024-02-16T11:42:39;96304.41;;;16.69;89.82
39141;BME280;24875;48.436;10.298;2024-02-16T11:45:10;96299.81;;;16.89;88.13
39141;BME280;24875;48.436;10.298;2024-02-16T11:47:36;96293.94;;;16.74;87.26
39141;BME280;24875;48.436;10.298;2024-02-16T11:50:05;96298.00;;;16.83;86.72
39141;BME280;24875;48.436;10.298;2024-02-16T11:52:34;96299.81;;;16.89;85.71
39141;BME280;24875;48.436;10.298;2024-02-16T11:55:01;96303.22;;;16.65;85.10
39141;BME280;24875;48.436;10.298;2024-02-16T11:57:29;96301.91;;;16.81;85.42
39141;BME280;24875;48.436;10.298;2024-02-16T11:59:56;96302.56;;;16.76;86.35
39141;BME280;24875;48.436;10.298;2024-02-16T12:02:24;96304.56;;;17.11;86.30
39141;BME280;24875;48.436;10.298;2024-02-16T12:04:57;96302.88;;;17.23;85.13
39141;BME280;24875;48.436;10.298;2024-02-16T12:07:25;96298.88;;;16.71;85.70
39141;BME280;24875;48.436;10.298;2024-02-16T12:09:56;96303.53;;;17.12;84.78
39141;BME280;24875;48.436;10.298;2024-02-16T12:12:24;96296.69;;;17.29;84.69
39141;BME280;24875;48.436;10.298;2024-02-16T12:14:50;96300.88;;;17.12;82.80
39141;BME280;24875;48.436;10.298;2024-02-16T12:17:17;96300.44;;;17.15;82.92
39141;BME280;24875;48.436;10.298;2024-02-16T12:19:45;96295.81;;;17.35;82.72
39141;BME280;24875;48.436;10.298;2024-02-16T12:22:16;96299.72;;;17.57;83.68
39141;BME280;24875;48.436;10.298;2024-02-16T12:24:44;96293.09;;;17.66;83.85
39141;BME280;24875;48.436;10.298;2024-02-16T12:27:10;96292.78;;;17.56;84.11
39141;BME280;24875;48.436;10.298;2024-02-16T12:29:38;96293.72;;;17.86;83.33
39141;BME280;24875;48.436;10.298;2024-02-16T12:32:05;96292.59;;;17.93;82.75
39141;BME280;24875;48.436;10.298;2024-02-16T12:34:34;96300.84;;;17.92;82.19
39141;BME280;24875;48.436;10.298;2024-02-16T12:37:05;96300.38;;;17.77;80.77
39141;BME280;24875;48.436;10.298;2024-02-16T12:39:33;96303.97;;;17.09;83.66
39141;BME280;24875;48.436;10.298;2024-02-16T12:42:00;96301.50;;;16.77;86.84
39141;BME280;24875;48.436;10.298;2024-02-16T12:44:26;96304.44;;;17.00;87.17
39141;BME280;24875;48.436;10.298;2024-02-16T12:46:53;96303.00;;;16.98;87.16
39141;BME280;24875;48.436;10.298;2024-02-16T12:49:19;96303.09;;;16.85;89.69